sensor_id;sensor_type;location;lat;lon;timestamp;P1;durP1;ratioP1;P2;durP2;ratioP2
39242;SDS011;29823;47.404;8.566;2024-01-10T00:02:19;61.78;;;23.23;;
39242;SDS011;29823;47.404;8.566;2024-01-10T00:04:47;59.47;;;24.30;;
39242;SDS011;29823;47.404;8.566;2024-01-10T00:07:15;57.88;;;22.48;;
39242;SDS011;29823;47.404;8.566;2024-01-10T00:09:43;59.88;;;22.70;;
39242;SDS011;29823;47.404;8.566;2024-01-10T00:12:12;70.72;;;24.55;;
39242;SDS011;29823;47.404;8.566;2024-01-10T00:14:39;60.85;;;23.63;;
39242;SDS011;29823;47.404;8.566;2024-01-10T00:17:08;58.67;;;22.33;;
39242;SDS011;29823;47.404;8.566;2024-01-10T00:19:36;58.30;;;24.33;;
39242;SDS011;29823;47.404;8.566;2024-01-10T00:22:03;58.95;;;23.08;;
39242;SDS011;29823;47.404;8.566;2024-01-10T00:24:31;61.72;;;22.35;;
39242;SDS011;29823;47.404;8.566;2024-01-10T00:26:59;55.50;;;22.90;;
39242;SDS011;29823;47.404;8.566;2024-01-10T00:29:26;63.63;;;26.90;;
39242;SDS011;29823;47.404;8.566;2024-01-10T00:31:53;59.65;;;24.90;;
39242;SDS011;29823;47.404;8.566;2024-01-10T00:34:27;57.35;;;22.42;;
39242;SDS011;29823;47.404;8.566;2024-01-10T00:36:54;54.67;;;23.33;;
39242;SDS011;29823;47.404;8.566;2024-01-10T00:39:22;59.58;;;24.48;;
39242;SDS011;29823;47.404;8.566;2024-01-10T00:41:50;52.30;;;22.27;;
39242;SDS011;29823;47.404;8.566;2024-01-10T00:44:17;53.78;;;22.30;;
39242;SDS011;29823;47.404;8.566;2024-01-10T00:46:45;67.55;;;24.52;;
39242;SDS011;29823;47.404;8.566;2024-01-10T00:49:13;62.55;;;24.80;;
39242;SDS011;29823;47.404;8.566;2024-01-10T00:51:42;63.65;;;24.48;;
39242;SDS011;29823;47.404;8.566;2024-01-10T00:54:09;57.83;;;23.08;;
39242;SDS011;29823;47.404;8.566;2024-01-10T00:56:37;63.03;;;23.27;;
39242;SDS011;29823;47.404;8.566;2024-01-10T00:59:05;56.15;;;23.38;;
39242;SDS011;29823;47.404;8.566;2024-01-10T01:01:32;57.38;;;23.08;;
39242;SDS011;29823;47.404;8.566;2024-01-10T01:04:00;61.97;;;23.23;;
39242;SDS011;29823;47.404;8.566;2024-01-10T01:06:28;73.07;;;26.55;;
39242;SDS011;29823;47.404;8.566;2024-01-10T01:08:57;59.35;;;23.80;;
39242;SDS011;29823;47.404;8.566;2024-01-10T01:11:25;60.05;;;23.00;;
39242;SDS011;29823;47.404;8.566;2024-01-10T01:13:53;61.65;;;23.88;;
39242;SDS011;29823;47.404;8.566;2024-01-10T01:16:21;61.80;;;24.63;;
39242;SDS011;29823;47.404;8.566;2024-01-10T01:18:49;58.97;;;22.92;;
39242;SDS011;29823;47.404;8.566;2024-01-10T01:21:16;56.70;;;22.73;;
39242;SDS011;29823;47.404;8.566;2024-01-10T01:23:44;58.95;;;23.33;;
39242;SDS011;29823;47.404;8.566;2024-01-10T01:26:14;57.72;;;22.80;;
39242;SDS011;29823;47.404;8.566;2024-01-10T01:28:41;59.50;;;23.98;;
39242;SDS011;29823;47.404;8.566;2024-01-10T01:31:09;63.15;;;24.35;;
39242;SDS011;29823;47.404;8.566;2024-01-10T01:33:37;63.05;;;24.52;;
39242;SDS011;29823;47.404;8.566;2024-01-10T01:36:05;67.22;;;24.00;;
39242;SDS011;29823;47.404;8.566;2024-01-10T01:38:33;57.72;;;22.02;;
39242;SDS011;29823;47.404;8.566;2024-01-10T01:41:01;62.45;;;22.88;;
39242;SDS011;29823;47.404;8.566;2024-01-10T01:43:30;64.85;;;24.67;;
39242;SDS011;29823;47.404;8.566;2024-01-10T01:45:58;61.72;;;24.65;;
39242;SDS011;29823;47.404;8.566;2024-01-10T01:48:26;65.55;;;24.83;;
39242;SDS011;29823;47.404;8.566;2024-01-10T01:50:56;60.42;;;23.67;;
39242;SDS011;29823;47.404;8.566;2024-01-10T01:53:24;61.70;;;23.58;;
39242;SDS011;29823;47.404;8.566;2024-01-10T01:55:51;62.13;;;24.05;;
39242;SDS011;29823;47.404;8.566;2024-01-10T01:58:19;62.10;;;23.85;;
39242;SDS011;29823;47.404;8.566;2024-01-10T02:00:49;64.05;;;24.75;;
39242;SDS011;29823;47.404;8.566;2024-01-10T02:03:16;64.40;;;24.70;;
39242;SDS011;29823;47.404;8.566;2024-01-10T02:05:45;60.85;;;24.05;;
39242;SDS011;29823;47.404;8.566;2024-01-10T02:08:14;59.83;;;23.45;;
39242;SDS011;29823;47.404;8.566;2024-01-10T02:10:42;58.50;;;23.33;;
39242;SDS011;29823;47.404;8.566;2024-01-10T02:13:09;66.60;;;24.08;;
39242;SDS011;29823;47.404;8.566;2024-01-10T02:15:38;62.45;;;23.17;;
39242;SDS011;29823;47.404;8.566;2024-01-10T02:18:07;67.95;;;25.15;;
39242;SDS011;29823;47.404;8.566;2024-01-10T02:20:37;64.88;;;26.15;;
39242;SDS011;29823;47.404;8.566;2024-01-10T02:23:04;58.72;;;22.55;;
39242;SDS011;29823;47.404;8.566;2024-01-10T02:25:34;67.63;;;24.30;;
39242;SDS011;29823;47.404;8.566;2024-01-10T02:28:01;62.83;;;23.95;;
39242;SDS011;29823;47.404;8.566;2024-01-10T02:30:29;53.90;;;23.25;;
39242;SDS011;29823;47.404;8.566;2024-01-10T02:32:57;64.53;;;25.08;;
39242;SDS011;29823;47.404;8.566;2024-01-10T02:35:25;64.55;;;23.10;;
39242;SDS011;29823;47.404;8.566;2024-01-10T02:37:53;63.53;;;23.45;;
39242;SDS011;29823;47.404;8.566;2024-01-10T02:40:21;61.35;;;23.60;;
39242;SDS011;29823;47.404;8.566;2024-01-10T02:42:50;62.72;;;24.05;;
39242;SDS011;29823;47.404;8.566;2024-01-10T02:45:18;61.03;;;24.00;;
39242;SDS011;29823;47.404;8.566;2024-01-10T02:47:45;62.85;;;24.08;;
39242;SDS011;29823;47.404;8.566;2024-01-10T02:50:13;59.28;;;24.67;;
39242;SDS011;29823;47.404;8.566;2024-01-10T02:52:41;63.17;;;24.27;;
39242;SDS011;29823;47.404;8.566;2024-01-10T02:55:08;68.47;;;25.70;;
39242;SDS011;29823;47.404;8.566;2024-01-10T02:57:36;67.35;;;24.13;;
39242;SDS011;29823;47.404;8.566;2024-01-10T03:00:06;69.35;;;24.50;;
39242;SDS011;29823;47.404;8.566;2024-01-10T03:02:34;66.15;;;24.23;;
39242;SDS011;29823;47.404;8.566;2024-01-10T03:05:02;69.97;;;25.02;;
39242;SDS011;29823;47.404;8.566;2024-01-10T03:07:30;65.47;;;25.95;;
39242;SDS011;29823;47.404;8.566;2024-01-10T03:09:57;67.78;;;24.95;;
39242;SDS011;29823;47.404;8.566;2024-01-10T03:12:25;62.85;;;23.60;;
39242;SDS011;29823;47.404;8.566;2024-01-10T03:14:52;62.80;;;22.35;;
39242;SDS011;29823;47.404;8.566;2024-01-10T03:17:21;63.78;;;25.05;;
39242;SDS011;29823;47.404;8.566;2024-01-10T03:19:49;60.72;;;22.90;;
39242;SDS011;29823;47.404;8.566;2024-01-10T03:22:17;66.20;;;25.60;;
39242;SDS011;29823;47.404;8.566;2024-01-10T03:24:45;68.63;;;24.38;;
39242;SDS011;29823;47.404;8.566;2024-01-10T03:27:12;63.70;;;24.55;;
39242;SDS011;29823;47.404;8.566;2024-01-10T03:29:40;56.75;;;22.88;;
39242;SDS011;29823;47.404;8.566;2024-01-10T03:32:08;64.55;;;24.13;;
39242;SDS011;29823;47.404;8.566;2024-01-10T03:34:37;61.75;;;23.40;;
39242;SDS011;29823;47.404;8.566;2024-01-10T03:37:05;61.72;;;23.80;;
39242;SDS011;29823;47.404;8.566;2024-01-10T03:39:33;53.50;;;23.35;;
39242;SDS011;29823;47.404;8.566;2024-01-10T03:42:00;62.92;;;23.98;;
39242;SDS011;29823;47.404;8.566;2024-01-10T03:44:28;62.22;;;23.77;;
39242;SDS011;29823;47.404;8.566;2024-01-10T03:46:56;68.60;;;23.92;;
39242;SDS011;29823;47.404;8.566;2024-01-10T03:49:23;64.07;;;25.08;;
39242;SDS011;29823;47.404;8.566;2024-01-10T03:51:52;64.03;;;23.63;;
39242;SDS011;29823;47.404;8.566;2024-01-10T03:54:20;66.70;;;24.30;;
39242;SDS011;29823;47.404;8.566;2024-01-10T03:56:48;66.50;;;25.35;;
39242;SDS011;29823;47.404;8.566;2024-01-10T03:59:15;67.45;;;24.92;;
39242;SDS011;29823;47.404;8.566;2024-01-10T04:01:43;65.45;;;24.25;;
39242;SDS011;29823;47.404;8.566;2024-01-10T04:04:11;65.45;;;24.35;;
39242;SDS011;29823;47.404;8.566;2024-01-10T04:06:38;60.20;;;25.52;;
39242;SDS011;29823;47.404;8.566;2024-01-10T04:09:08;64.97;;;23.55;;
39242;SDS011;29823;47.404;8.566;2024-01-10T04:11:36;67.53;;;25.45;;
39242;SDS011;29823;47.404;8.566;2024-01-10T04:14:04;66.10;;;23.65;;
39242;SDS011;29823;47.404;8.566;2024-01-10T04:16:32;70.65;;;25.38;;
39242;SDS011;29823;47.404;8.566;2024-01-10T04:19:00;66.68;;;24.30;;
39242;SDS011;29823;47.404;8.566;2024-01-10T04:21:27;61.88;;;23.20;;
39242;SDS011;29823;47.404;8.566;2024-01-10T04:23:55;66.40;;;24.08;;
39242;SDS011;29823;47.404;8.566;2024-01-10T04:26:24;64.30;;;24.17;;
39242;SDS011;29823;47.404;8.566;2024-01-10T04:28:51;66.53;;;24.88;;
39242;SDS011;29823;47.404;8.566;2024-01-10T04:31:19;64.60;;;24.73;;
39242;SDS011;29823;47.404;8.566;2024-01-10T04:33:47;62.78;;;24.17;;
39242;SDS011;29823;47.404;8.566;2024-01-10T04:36:14;64.72;;;24.42;;
39242;SDS011;29823;47.404;8.566;2024-01-10T04:38:42;65.45;;;23.75;;
39242;SDS011;29823;47.404;8.566;2024-01-10T04:41:10;64.25;;;24.98;;
39242;SDS011;29823;47.404;8.566;2024-01-10T04:43:39;64.72;;;23.38;;
39242;SDS011;29823;47.404;8.566;2024-01-10T04:46:07;60.65;;;23.25;;
39242;SDS011;29823;47.404;8.566;2024-01-10T04:48:36;59.35;;;24.02;;
39242;SDS011;29823;47.404;8.566;2024-01-10T04:51:04;59.60;;;23.73;;
39242;SDS011;29823;47.404;8.566;2024-01-10T04:53:32;60.33;;;23.10;;
39242;SDS011;29823;47.404;8.566;2024-01-10T04:56:00;62.63;;;24.15;;
39242;SDS011;29823;47.404;8.566;2024-01-10T04:58:27;66.72;;;23.95;;
39242;SDS011;29823;47.404;8.566;2024-01-10T05:00:57;69.25;;;25.25;;
39242;SDS011;29823;47.404;8.566;2024-01-10T05:03:24;63.83;;;24.65;;
39242;SDS011;29823;47.404;8.566;2024-01-10T05:05:52;65.25;;;24.50;;
39242;SDS011;29823;47.404;8.566;2024-01-10T05:08:20;76.15;;;24.30;;
39242;SDS011;29823;47.404;8.566;2024-01-10T05:10:48;60.22;;;23.42;;
39242;SDS011;29823;47.404;8.566;2024-01-10T05:13:17;68.97;;;25.30;;
39242;SDS011;29823;47.404;8.566;2024-01-10T05:15:44;65.50;;;24.20;;
39242;SDS011;29823;47.404;8.566;2024-01-10T05:18:13;63.05;;;22.85;;
39242;SDS011;29823;47.404;8.566;2024-01-10T05:20:41;68.63;;;23.73;;
39242;SDS011;29823;47.404;8.566;2024-01-10T05:23:08;59.45;;;22.30;;
39242;SDS011;29823;47.404;8.566;2024-01-10T05:25:35;65.45;;;24.17;;
39242;SDS011;29823;47.404;8.566;2024-01-10T05:28:03;71.57;;;24.20;;
39242;SDS011;29823;47.404;8.566;2024-01-10T05:30:31;69.63;;;25.05;;
39242;SDS011;29823;47.404;8.566;2024-01-10T05:32:59;71.88;;;24.42;;
39242;SDS011;29823;47.404;8.566;2024-01-10T05:35:28;71.85;;;25.50;;
39242;SDS011;29823;47.404;8.566;2024-01-10T05:37:55;78.63;;;24.33;;
39242;SDS011;29823;47.404;8.566;2024-01-10T05:40:23;58.38;;;24.77;;
39242;SDS011;29823;47.404;8.566;2024-01-10T05:42:51;64.05;;;24.33;;
39242;SDS011;29823;47.404;8.566;2024-01-10T05:45:18;62.78;;;25.30;;
39242;SDS011;29823;47.404;8.566;2024-01-10T05:47:46;72.82;;;25.67;;
39242;SDS011;29823;47.404;8.566;2024-01-10T05:50:15;59.05;;;24.23;;
39242;SDS011;29823;47.404;8.566;2024-01-10T05:52:44;63.42;;;24.27;;
39242;SDS011;29823;47.404;8.566;2024-01-10T05:55:15;65.63;;;24.95;;
39242;SDS011;29823;47.404;8.566;2024-01-10T05:57:43;71.78;;;25.50;;
39242;SDS011;29823;47.404;8.566;2024-01-10T06:00:11;68.22;;;25.58;;
39242;SDS011;29823;47.404;8.566;2024-01-10T06:02:42;63.97;;;23.77;;
39242;SDS011;29823;47.404;8.566;2024-01-10T06:05:10;60.58;;;22.83;;
39242;SDS011;29823;47.404;8.566;2024-01-10T06:07:38;64.65;;;24.65;;
39242;SDS011;29823;47.404;8.566;2024-01-10T06:10:08;63.35;;;23.65;;
39242;SDS011;29823;47.404;8.566;2024-01-10T06:12:37;65.80;;;24.13;;
39242;SDS011;29823;47.404;8.566;2024-01-10T06:15:06;63.70;;;25.00;;
39242;SDS011;29823;47.404;8.566;2024-01-10T06:17:33;66.47;;;25.40;;
39242;SDS011;29823;47.404;8.566;2024-01-10T06:20:01;61.42;;;23.85;;
39242;SDS011;29823;47.404;8.566;2024-01-10T06:22:30;65.07;;;24.25;;
39242;SDS011;29823;47.404;8.566;2024-01-10T06:24:58;65.35;;;24.23;;
39242;SDS011;29823;47.404;8.566;2024-01-10T06:27:27;69.15;;;24.88;;
39242;SDS011;29823;47.404;8.566;2024-01-10T06:29:54;70.22;;;24.55;;
39242;SDS011;29823;47.404;8.566;2024-01-10T06:32:22;63.53;;;25.13;;
39242;SDS011;29823;47.404;8.566;2024-01-10T06:34:50;62.88;;;25.15;;
39242;SDS011;29823;47.404;8.566;2024-01-10T06:37:17;80.15;;;27.50;;
39242;SDS011;29823;47.404;8.566;2024-01-10T06:39:45;68.68;;;23.83;;
39242;SDS011;29823;47.404;8.566;2024-01-10T06:42:13;79.15;;;25.85;;
39242;SDS011;29823;47.404;8.566;2024-01-10T06:44:42;69.43;;;25.25;;
39242;SDS011;29823;47.404;8.566;2024-01-10T06:47:10;69.72;;;25.20;;
39242;SDS011;29823;47.404;8.566;2024-01-10T06:49:38;68.57;;;25.70;;
39242;SDS011;29823;47.404;8.566;2024-01-10T06:52:05;75.30;;;24.58;;
39242;SDS011;29823;47.404;8.566;2024-01-10T06:54:34;73.93;;;25.77;;
39242;SDS011;29823;47.404;8.566;2024-01-10T06:57:02;76.22;;;26.80;;
39242;SDS011;29823;47.404;8.566;2024-01-10T06:59:30;74.07;;;27.42;;
39242;SDS011;29823;47.404;8.566;2024-01-10T07:01:59;78.00;;;28.42;;
39242;SDS011;29823;47.404;8.566;2024-01-10T07:04:28;76.88;;;27.80;;
39242;SDS011;29823;47.404;8.566;2024-01-10T07:06:55;73.97;;;26.55;;
39242;SDS011;29823;47.404;8.566;2024-01-10T07:09:23;83.40;;;26.92;;
39242;SDS011;29823;47.404;8.566;2024-01-10T07:11:51;74.97;;;27.02;;
39242;SDS011;29823;47.404;8.566;2024-01-10T07:14:19;70.28;;;27.27;;
39242;SDS011;29823;47.404;8.566;2024-01-10T07:16:47;75.93;;;28.27;;
39242;SDS011;29823;47.404;8.566;2024-01-10T07:19:16;78.43;;;26.80;;
39242;SDS011;29823;47.404;8.566;2024-01-10T07:21:44;66.03;;;25.67;;
39242;SDS011;29823;47.404;8.566;2024-01-10T07:24:11;69.95;;;26.17;;
39242;SDS011;29823;47.404;8.566;2024-01-10T07:26:39;74.28;;;26.42;;
39242;SDS011;29823;47.404;8.566;2024-01-10T07:29:07;66.40;;;26.15;;
39242;SDS011;29823;47.404;8.566;2024-01-10T07:31:35;71.75;;;26.65;;
39242;SDS011;29823;47.404;8.566;2024-01-10T07:34:03;69.05;;;25.40;;
39242;SDS011;29823;47.404;8.566;2024-01-10T07:36:40;82.05;;;27.42;;
39242;SDS011;29823;47.404;8.566;2024-01-10T07:39:09;75.85;;;27.80;;
39242;SDS011;29823;47.404;8.566;2024-01-10T07:41:36;74.95;;;27.00;;
39242;SDS011;29823;47.404;8.566;2024-01-10T07:44:03;73.28;;;25.77;;
39242;SDS011;29823;47.404;8.566;2024-01-10T07:46:31;75.40;;;26.30;;
39242;SDS011;29823;47.404;8.566;2024-01-10T07:49:01;74.20;;;28.67;;
39242;SDS011;29823;47.404;8.566;2024-01-10T07:51:28;69.45;;;27.38;;
39242;SDS011;29823;47.404;8.566;2024-01-10T07:53:57;74.03;;;28.58;;
39242;SDS011;29823;47.404;8.566;2024-01-10T07:56:25;70.70;;;25.95;;
39242;SDS011;29823;47.404;8.566;2024-01-10T07:58:53;72.95;;;26.58;;
39242;SDS011;29823;47.404;8.566;2024-01-10T08:01:22;76.90;;;28.33;;
39242;SDS011;29823;47.404;8.566;2024-01-10T08:03:49;72.60;;;26.85;;
39242;SDS011;29823;47.404;8.566;2024-01-10T08:06:17;71.45;;;28.52;;
39242;SDS011;29823;47.404;8.566;2024-01-10T08:08:55;70.72;;;26.00;;
39242;SDS011;29823;47.404;8.566;2024-01-10T08:11:24;66.65;;;26.67;;
39242;SDS011;29823;47.404;8.566;2024-01-10T08:13:52;67.22;;;26.60;;
39242;SDS011;29823;47.404;8.566;2024-01-10T08:16:20;65.30;;;25.35;;
39242;SDS011;29823;47.404;8.566;2024-01-10T08:18:47;70.32;;;27.75;;
39242;SDS011;29823;47.404;8.566;2024-01-10T08:21:15;64.05;;;26.00;;
39242;SDS011;29823;47.404;8.566;2024-01-10T08:23:43;65.00;;;25.88;;
39242;SDS011;29823;47.404;8.566;2024-01-10T08:26:11;73.32;;;27.08;;
39242;SDS011;29823;47.404;8.566;2024-01-10T08:28:40;74.03;;;27.48;;
39242;SDS011;29823;47.404;8.566;2024-01-10T08:31:09;66.00;;;26.60;;
39242;SDS011;29823;47.404;8.566;2024-01-10T08:33:39;68.28;;;26.10;;
39242;SDS011;29823;47.404;8.566;2024-01-10T08:36:07;60.60;;;25.20;;
39242;SDS011;29823;47.404;8.566;2024-01-10T08:38:36;60.33;;;25.70;;
39242;SDS011;29823;47.404;8.566;2024-01-10T08:41:04;59.63;;;23.92;;
39242;SDS011;29823;47.404;8.566;2024-01-10T08:43:31;61.42;;;23.90;;
39242;SDS011;29823;47.404;8.566;2024-01-10T08:46:00;57.05;;;24.17;;
39242;SDS011;29823;47.404;8.566;2024-01-10T08:48:30;67.15;;;25.38;;
39242;SDS011;29823;47.404;8.566;2024-01-10T08:50:58;62.38;;;26.02;;
39242;SDS011;29823;47.404;8.566;2024-01-10T08:53:25;55.25;;;24.17;;
39242;SDS011;29823;47.404;8.566;2024-01-10T08:55:53;61.22;;;25.90;;
39242;SDS011;29823;47.404;8.566;2024-01-10T08:58:21;60.85;;;26.73;;
39242;SDS011;29823;47.404;8.566;2024-01-10T09:00:49;65.75;;;25.42;;
39242;SDS011;29823;47.404;8.566;2024-01-10T09:03:18;66.57;;;25.70;;
39242;SDS011;29823;47.404;8.566;2024-01-10T09:05:46;63.70;;;23.92;;
39242;SDS011;29823;47.404;8.566;2024-01-10T09:08:30;57.83;;;23.65;;
39242;SDS011;29823;47.404;8.566;2024-01-10T09:10:58;56.25;;;23.17;;
39242;SDS011;29823;47.404;8.566;2024-01-10T09:13:25;56.78;;;25.10;;
39242;SDS011;29823;47.404;8.566;2024-01-10T09:15:53;65.03;;;25.02;;
39242;SDS011;29823;47.404;8.566;2024-01-10T09:18:22;61.72;;;24.67;;
39242;SDS011;29823;47.404;8.566;2024-01-10T09:20:50;60.65;;;24.35;;
39242;SDS011;29823;47.404;8.566;2024-01-10T09:23:18;70.22;;;25.77;;
39242;SDS011;29823;47.404;8.566;2024-01-10T09:25:46;66.90;;;26.52;;
39242;SDS011;29823;47.404;8.566;2024-01-10T09:28:14;67.65;;;25.67;;
39242;SDS011;29823;47.404;8.566;2024-01-10T09:30:42;72.55;;;26.80;;
39242;SDS011;29823;47.404;8.566;2024-01-10T09:33:10;66.00;;;26.83;;
39242;SDS011;29823;47.404;8.566;2024-01-10T09:35:40;63.13;;;25.30;;
39242;SDS011;29823;47.404;8.566;2024-01-10T09:38:08;65.93;;;24.40;;
39242;SDS011;29823;47.404;8.566;2024-01-10T09:40:36;68.30;;;24.88;;
39242;SDS011;29823;47.404;8.566;2024-01-10T09:43:04;61.42;;;24.30;;
39242;SDS011;29823;47.404;8.566;2024-01-10T09:45:34;61.60;;;24.92;;
39242;SDS011;29823;47.404;8.566;2024-01-10T09:48:02;71.35;;;26.13;;
39242;SDS011;29823;47.404;8.566;2024-01-10T09:50:31;65.78;;;26.23;;
39242;SDS011;29823;47.404;8.566;2024-01-10T09:53:02;67.07;;;26.52;;
39242;SDS011;29823;47.404;8.566;2024-01-10T09:55:34;65.35;;;25.75;;
39242;SDS011;29823;47.404;8.566;2024-01-10T09:58:02;63.35;;;27.10;;
39242;SDS011;29823;47.404;8.566;2024-01-10T10:00:30;67.43;;;26.25;;
39242;SDS011;29823;47.404;8.566;2024-01-10T10:03:01;61.92;;;25.58;;
39242;SDS011;29823;47.404;8.566;2024-01-10T10:05:29;65.63;;;24.92;;
39242;SDS011;29823;47.404;8.566;2024-01-10T10:07:57;70.35;;;25.58;;
39242;SDS011;29823;47.404;8.566;2024-01-10T10:10:27;62.83;;;24.83;;
39242;SDS011;29823;47.404;8.566;2024-01-10T10:12:54;62.75;;;25.55;;
39242;SDS011;29823;47.404;8.566;2024-01-10T10:15:22;62.03;;;25.65;;
39242;SDS011;29823;47.404;8.566;2024-01-10T10:17:52;67.65;;;25.35;;
39242;SDS011;29823;47.404;8.566;2024-01-10T10:20:22;57.08;;;24.60;;
39242;SDS011;29823;47.404;8.566;2024-01-10T10:22:57;62.13;;;25.67;;
39242;SDS011;29823;47.404;8.566;2024-01-10T10:25:28;60.60;;;24.70;;
39242;SDS011;29823;47.404;8.566;2024-01-10T10:27:56;63.70;;;25.30;;
39242;SDS011;29823;47.404;8.566;2024-01-10T10:30:24;65.20;;;26.25;;
39242;SDS011;29823;47.404;8.566;2024-01-10T10:32:52;63.15;;;25.25;;
39242;SDS011;29823;47.404;8.566;2024-01-10T10:35:20;68.00;;;25.65;;
39242;SDS011;29823;47.404;8.566;2024-01-10T10:38:03;63.58;;;26.10;;
39242;SDS011;29823;47.404;8.566;2024-01-10T10:40:32;65.35;;;26.63;;
39242;SDS011;29823;47.404;8.566;2024-01-10T10:42:59;63.25;;;25.33;;
39242;SDS011;29823;47.404;8.566;2024-01-10T10:45:31;65.47;;;26.53;;
39242;SDS011;29823;47.404;8.566;2024-01-10T10:47:59;66.60;;;26.25;;
39242;SDS011;29823;47.404;8.566;2024-01-10T10:50:28;61.13;;;26.13;;
39242;SDS011;29823;47.404;8.566;2024-01-10T10:52:57;63.38;;;26.60;;
39242;SDS011;29823;47.404;8.566;2024-01-10T10:55:25;67.50;;;26.88;;
39242;SDS011;29823;47.404;8.566;2024-01-10T10:57:55;75.22;;;28.88;;
39242;SDS011;29823;47.404;8.566;2024-01-10T11:00:33;67.03;;;27.15;;
39242;SDS011;29823;47.404;8.566;2024-01-10T11:03:02;72.13;;;26.67;;
39242;SDS011;29823;47.404;8.566;2024-01-10T11:05:30;69.90;;;26.85;;
39242;SDS011;29823;47.404;8.566;2024-01-10T11:08:00;64.93;;;27.50;;
39242;SDS011;29823;47.404;8.566;2024-01-10T11:10:32;52.70;;;19.95;;
39242;SDS011;29823;47.404;8.566;2024-01-10T11:13:08;70.32;;;26.75;;
39242;SDS011;29823;47.404;8.566;2024-01-10T11:15:47;64.93;;;27.65;;
39242;SDS011;29823;47.404;8.566;2024-01-10T11:18:25;71.53;;;28.80;;
39242;SDS011;29823;47.404;8.566;2024-01-10T11:20:57;75.18;;;27.20;;
39242;SDS011;29823;47.404;8.566;2024-01-10T11:23:35;72.18;;;26.63;;
39242;SDS011;29823;47.404;8.566;2024-01-10T11:26:06;72.28;;;27.50;;
39242;SDS011;29823;47.404;8.566;2024-01-10T11:28:36;76.90;;;29.50;;
39242;SDS011;29823;47.404;8.566;2024-01-10T11:31:05;82.63;;;30.15;;
39242;SDS011;29823;47.404;8.566;2024-01-10T11:33:34;77.35;;;29.52;;
39242;SDS011;29823;47.404;8.566;2024-01-10T11:36:06;76.20;;;28.42;;
39242;SDS011;29823;47.404;8.566;2024-01-10T11:38:43;75.57;;;28.08;;
39242;SDS011;29823;47.404;8.566;2024-01-10T11:41:11;78.72;;;28.90;;
39242;SDS011;29823;47.404;8.566;2024-01-10T11:43:40;68.47;;;28.15;;
39242;SDS011;29823;47.404;8.566;2024-01-10T11:46:08;71.40;;;26.75;;
39242;SDS011;29823;47.404;8.566;2024-01-10T11:48:38;74.18;;;27.85;;
39242;SDS011;29823;47.404;8.566;2024-01-10T11:51:07;72.68;;;26.80;;
39242;SDS011;29823;47.404;8.566;2024-01-10T11:53:38;75.28;;;28.42;;
39242;SDS011;29823;47.404;8.566;2024-01-10T11:56:09;74.07;;;26.65;;
39242;SDS011;29823;47.404;8.566;2024-01-10T11:58:56;74.82;;;27.80;;
39242;SDS011;29823;47.404;8.566;2024-01-10T12:01:28;72.63;;;27.38;;
39242;SDS011;29823;47.404;8.566;2024-01-10T12:03:56;71.25;;;27.08;;
39242;SDS011;29823;47.404;8.566;2024-01-10T12:06:43;69.60;;;25.83;;
39242;SDS011;29823;47.404;8.566;2024-01-10T12:09:12;69.63;;;26.63;;
39242;SDS011;29823;47.404;8.566;2024-01-10T12:11:40;70.28;;;25.08;;
39242;SDS011;29823;47.404;8.566;2024-01-10T12:14:10;66.40;;;25.00;;
39242;SDS011;29823;47.404;8.566;2024-01-10T12:16:38;73.60;;;26.27;;
39242;SDS011;29823;47.404;8.566;2024-01-10T12:19:06;74.90;;;26.30;;
39242;SDS011;29823;47.404;8.566;2024-01-10T12:21:34;72.75;;;27.35;;
39242;SDS011;29823;47.404;8.566;2024-01-10T12:24:03;72.38;;;25.48;;
39242;SDS011;29823;47.404;8.566;2024-01-10T12:26:32;65.05;;;23.98;;
39242;SDS011;29823;47.404;8.566;2024-01-10T12:29:00;61.42;;;23.55;;
39242;SDS011;29823;47.404;8.566;2024-01-10T12:31:30;67.22;;;24.73;;
39242;SDS011;29823;47.404;8.566;2024-01-10T12:33:58;66.25;;;23.92;;
39242;SDS011;29823;47.404;8.566;2024-01-10T12:36:26;68.47;;;25.25;;
39242;SDS011;29823;47.404;8.566;2024-01-10T12:38:54;59.55;;;22.67;;
39242;SDS011;29823;47.404;8.566;2024-01-10T12:41:22;70.05;;;22.95;;
39242;SDS011;29823;47.404;8.566;2024-01-10T12:43:51;63.78;;;23.88;;
39242;SDS011;29823;47.404;8.566;2024-01-10T12:46:20;68.38;;;23.02;;
39242;SDS011;29823;47.404;8.566;2024-01-10T12:48:59;65.40;;;24.80;;
39242;SDS011;29823;47.404;8.566;2024-01-10T12:51:28;61.10;;;22.38;;
39242;SDS011;29823;47.404;8.566;2024-01-10T12:53:56;63.40;;;21.83;;
39242;SDS011;29823;47.404;8.566;2024-01-10T12:56:25;57.33;;;20.00;;
39242;SDS011;29823;47.404;8.566;2024-01-10T12:58:53;49.83;;;18.45;;
39242;SDS011;29823;47.404;8.566;2024-01-10T13:01:23;60.85;;;20.33;;
39242;SDS011;29823;47.404;8.566;2024-01-10T13:03:51;59.90;;;21.58;;
39242;SDS011;29823;47.404;8.566;2024-01-10T13:06:20;56.20;;;19.45;;
39242;SDS011;29823;47.404;8.566;2024-01-10T13:08:49;56.00;;;19.88;;
39242;SDS011;29823;47.404;8.566;2024-01-10T13:11:17;50.90;;;19.98;;
39242;SDS011;29823;47.404;8.566;2024-01-10T13:13:45;55.00;;;19.52;;
39242;SDS011;29823;47.404;8.566;2024-01-10T13:16:12;57.10;;;20.88;;
39242;SDS011;29823;47.404;8.566;2024-01-10T13:18:40;54.78;;;18.83;;
39242;SDS011;29823;47.404;8.566;2024-01-10T13:21:08;58.50;;;21.27;;
39242;SDS011;29823;47.404;8.566;2024-01-10T13:23:38;56.70;;;19.35;;
39242;SDS011;29823;47.404;8.566;2024-01-10T13:26:06;52.80;;;19.23;;
39242;SDS011;29823;47.404;8.566;2024-01-10T13:28:33;53.92;;;19.92;;
39242;SDS011;29823;47.404;8.566;2024-01-10T13:31:01;55.47;;;20.10;;
39242;SDS011;29823;47.404;8.566;2024-01-10T13:33:31;53.45;;;18.88;;
39242;SDS011;29823;47.404;8.566;2024-01-10T13:35:59;55.42;;;19.38;;
39242;SDS011;29823;47.404;8.566;2024-01-10T13:38:27;53.17;;;19.17;;
39242;SDS011;29823;47.404;8.566;2024-01-10T13:40:56;54.35;;;19.05;;
39242;SDS011;29823;47.404;8.566;2024-01-10T13:43:24;53.65;;;19.50;;
39242;SDS011;29823;47.404;8.566;2024-01-10T13:45:51;59.80;;;20.20;;
39242;SDS011;29823;47.404;8.566;2024-01-10T13:48:20;55.08;;;20.92;;
39242;SDS011;29823;47.404;8.566;2024-01-10T13:50:47;61.60;;;21.27;;
39242;SDS011;29823;47.404;8.566;2024-01-10T13:53:16;55.22;;;20.58;;
39242;SDS011;29823;47.404;8.566;2024-01-10T13:55:43;53.53;;;19.10;;
39242;SDS011;29823;47.404;8.566;2024-01-10T13:58:14;56.88;;;19.98;;
39242;SDS011;29823;47.404;8.566;2024-01-10T14:00:41;56.13;;;20.15;;
39242;SDS011;29823;47.404;8.566;2024-01-10T14:03:10;53.10;;;20.55;;
39242;SDS011;29823;47.404;8.566;2024-01-10T14:05:38;53.33;;;20.50;;
39242;SDS011;29823;47.404;8.566;2024-01-10T14:08:06;54.60;;;21.33;;
39242;SDS011;29823;47.404;8.566;2024-01-10T14:10:34;64.45;;;20.83;;
39242;SDS011;29823;47.404;8.566;2024-01-10T14:13:02;54.33;;;20.10;;
39242;SDS011;29823;47.404;8.566;2024-01-10T14:15:32;54.17;;;19.77;;
39242;SDS011;29823;47.404;8.566;2024-01-10T14:18:00;55.20;;;19.70;;
39242;SDS011;29823;47.404;8.566;2024-01-10T14:20:27;60.22;;;20.92;;
39242;SDS011;29823;47.404;8.566;2024-01-10T14:22:55;60.72;;;20.70;;
39242;SDS011;29823;47.404;8.566;2024-01-10T14:25:23;54.08;;;20.05;;
39242;SDS011;29823;47.404;8.566;2024-01-10T14:27:51;55.53;;;20.52;;
39242;SDS011;29823;47.404;8.566;2024-01-10T14:30:19;57.05;;;21.30;;